Time;durP1;ratioP1;P1;durP2;ratioP2;P2;SDS_P1;SDS_P2;PMS_P1;PMS_P2;Temp;Humidity;BMP_temperature;BMP_pressure;BME280_temperature;BME280_humidity;BME280_pressure;Samples;Min_cycle;Max_cycle;Signal;HPM_P1;HPM_P2
2023/04/14 00:01:38;;;;;;;7.03;6.20;;;;;;;;;;4242572;28;20358;-65
2023/04/14 00:03:58;;;;;;;8.63;7.32;;;;;;;;;;4245896;28;20055;-65
2023/04/14 00:06:18;;;;;;;6.75;6.20;;;;;;;;;;4247128;28;20046;-66
2023/04/14 00:08:38;;;;;;;7.15;6.75;;;;;;;;;;4243699;28;20078;-66
2023/04/14 00:10:58;;;;;;;10.30;5.65;;;;;;;;;;4246392;28;20049;-65
2023/04/14 00:13:19;;;;;;;6.53;6.00;;;;;;;;;;4248670;27;20076;-65
2023/04/14 00:15:41;;;;;;;7.93;6.93;;;;;;;;;;4250692;28;20220;-65
2023/04/14 00:18:01;;;;;;;6.47;5.73;;;;;;;;;;4245380;28;20111;-65
2023/04/14 00:20:22;;;;;;;6.28;5.80;;;;;;;;;;4247515;28;20107;-65
2023/04/14 00:22:42;;;;;;;9.80;6.72;;;;;;;;;;4249386;28;20385;-65
2023/04/14 00:25:02;;;;;;;8.13;7.35;;;;;;;;;;4250246;28;20143;-65
2023/04/14 00:27:23;;;;;;;10.65;7.00;;;;;;;;;;4245231;28;20050;-65
2023/04/14 00:29:43;;;;;;;7.60;7.10;;;;;;;;;;4249222;28;20419;-64
2023/04/14 00:32:03;;;;;;;6.45;5.72;;;;;;;;;;4247246;28;20153;-64
2023/04/14 00:34:23;;;;;;;5.85;5.35;;;;;;;;;;4247200;28;20035;-64
2023/04/14 00:36:44;;;;;;;6.32;5.65;;;;;;;;;;4248138;28;20103;-64
2023/04/14 00:39:04;;;;;;;5.85;5.28;;;;;;;;;;4251280;28;20066;-64
2023/04/14 00:41:24;;;;;;;5.55;5.05;;;;;;;;;;4248779;28;20228;-64
2023/04/14 00:43:44;;;;;;;4.95;4.80;;;;;;;;;;4245304;28;20042;-64
2023/04/14 00:46:05;;;;;;;5.50;5.03;;;;;;;;;;4251975;28;20373;-64
2023/04/14 00:48:26;;;;;;;5.35;5.18;;;;;;;;;;4249268;28;20096;-64
2023/04/14 00:50:46;;;;;;;8.70;4.95;;;;;;;;;;4249555;28;20050;-64
2023/04/14 00:53:07;;;;;;;6.32;5.97;;;;;;;;;;4249366;28;20106;-64
2023/04/14 00:55:26;;;;;;;5.40;5.00;;;;;;;;;;4247798;28;20101;-64
2023/04/14 00:57:47;;;;;;;5.43;4.65;;;;;;;;;;4242867;28;20106;-64
2023/04/14 01:00:07;;;;;;;6.00;5.40;;;;;;;;;;4245517;28;20241;-64
2023/04/14 01:02:27;;;;;;;5.78;5.55;;;;;;;;;;4248494;28;20074;-65
2023/04/14 01:04:48;;;;;;;4.93;4.60;;;;;;;;;;4243633;28;20365;-65
2023/04/14 01:07:14;;;;;;;6.00;5.25;;;;;;;;;;4242743;28;20428;-64
2023/04/14 01:09:35;;;;;;;5.63;5.10;;;;;;;;;;4247003;28;20145;-64
2023/04/14 01:12:08;;;;;;;3.88;3.55;;;;;;;;;;4247937;28;20145;-64
2023/04/14 01:14:30;;;;;;;4.78;4.57;;;;;;;;;;4243558;28;20108;-64
2023/04/14 01:16:52;;;;;;;4.88;4.70;;;;;;;;;;4249187;28;20046;-65
2023/04/14 01:19:24;;;;;;;5.63;5.28;;;;;;;;;;4246212;28;20340;-65
2023/04/14 01:21:46;;;;;;;4.47;4.25;;;;;;;;;;4244549;28;20050;-65
2023/04/14 01:24:16;;;;;;;3.90;3.67;;;;;;;;;;4245463;27;20055;-65
2023/04/14 01:26:37;;;;;;;3.83;3.72;;;;;;;;;;4251823;28;20416;-65
2023/04/14 01:29:01;;;;;;;4.22;4.13;;;;;;;;;;4248487;28;20100;-65
2023/04/14 01:31:24;;;;;;;5.32;4.80;;;;;;;;;;4249715;28;20119;-65
2023/04/14 01:33:44;;;;;;;4.70;4.50;;;;;;;;;;4250677;28;20076;-64
2023/04/14 01:36:07;;;;;;;4.80;4.47;;;;;;;;;;4244234;28;20042;-64
2023/04/14 01:38:29;;;;;;;4.50;4.40;;;;;;;;;;4244859;28;20054;-65
2023/04/14 01:40:50;;;;;;;4.38;4.28;;;;;;;;;;4249964;28;20047;-65
2023/04/14 01:43:12;;;;;;;3.97;3.97;;;;;;;;;;4248644;28;20407;-65
2023/04/14 01:45:34;;;;;;;3.25;3.15;;;;;;;;;;4246511;28;20046;-64
2023/04/14 01:47:55;;;;;;;3.65;3.65;;;;;;;;;;4244444;28;20389;-65
2023/04/14 01:50:16;;;;;;;5.68;5.35;;;;;;;;;;4246671;28;20042;-65
2023/04/14 01:52:37;;;;;;;4.53;4.30;;;;;;;;;;4246200;28;20050;-65
2023/04/14 01:54:57;;;;;;;5.45;5.20;;;;;;;;;;4252866;28;20047;-65
2023/04/14 01:57:21;;;;;;;5.00;4.90;;;;;;;;;;4244161;28;20046;-65
2023/04/14 01:59:41;;;;;;;4.63;4.63;;;;;;;;;;4243907;28;20050;-65
2023/04/14 02:02:02;;;;;;;3.88;3.78;;;;;;;;;;4243966;28;20077;-65
2023/04/14 02:04:25;;;;;;;4.20;4.20;;;;;;;;;;4243109;28;20270;-64
2023/04/14 02:06:47;;;;;;;3.70;3.70;;;;;;;;;;4242500;28;20141;-65
2023/04/14 02:09:11;;;;;;;3.72;3.72;;;;;;;;;;4243908;28;20051;-65
2023/04/14 02:11:33;;;;;;;3.88;3.88;;;;;;;;;;4250541;28;20078;-64
2023/04/14 02:13:54;;;;;;;3.63;3.63;;;;;;;;;;4249398;28;20046;-64
2023/04/14 02:16:15;;;;;;;4.28;4.18;;;;;;;;;;4245129;28;20092;-65
2023/04/14 02:18:37;;;;;;;4.50;4.50;;;;;;;;;;4241594;28;20058;-65
2023/04/14 02:20:58;;;;;;;3.35;3.35;;;;;;;;;;4245539;28;20088;-65
2023/04/14 02:23:19;;;;;;;4.20;3.97;;;;;;;;;;4250720;28;20063;-65
2023/04/14 02:25:41;;;;;;;3.17;3.17;;;;;;;;;;4243678;28;20051;-65
2023/04/14 02:28:06;;;;;;;4.07;4.07;;;;;;;;;;4248735;28;20080;-65
2023/04/14 02:30:31;;;;;;;3.85;3.85;;;;;;;;;;4248519;28;20069;-65
2023/04/14 02:33:18;;;;;;;4.30;4.30;;;;;;;;;;4252445;28;20046;-65
2023/04/14 02:35:57;;;;;;;5.38;5.20;;;;;;;;;;4242986;28;20383;-64
2023/04/14 02:38:38;;;;;;;3.63;3.63;;;;;;;;;;4251102;28;20050;-65
2023/04/14 02:41:00;;;;;;;4.35;4.30;;;;;;;;;;4248023;28;20251;-65
2023/04/14 02:43:26;;;;;;;4.60;4.35;;;;;;;;;;4252465;28;20296;-65
2023/04/14 02:45:47;;;;;;;4.93;4.93;;;;;;;;;;4230659;28;20116;-64
2023/04/14 02:48:09;;;;;;;4.90;4.80;;;;;;;;;;4251600;28;20045;-65
2023/04/14 02:50:31;;;;;;;4.85;4.65;;;;;;;;;;4250869;28;20109;-65
2023/04/14 02:52:52;;;;;;;4.43;4.22;;;;;;;;;;4249234;28;20081;-65
2023/04/14 02:55:12;;;;;;;3.35;3.35;;;;;;;;;;4247393;28;20128;-65
2023/04/14 02:57:33;;;;;;;3.08;3.08;;;;;;;;;;4244735;28;20081;-65
2023/04/14 02:59:54;;;;;;;3.65;3.55;;;;;;;;;;4249948;28;20046;-64
2023/04/14 03:02:15;;;;;;;4.05;4.05;;;;;;;;;;4247092;28;20070;-64
2023/04/14 03:04:37;;;;;;;4.18;4.18;;;;;;;;;;4232557;28;20059;-65
2023/04/14 03:06:58;;;;;;;5.00;4.90;;;;;;;;;;4242291;28;20054;-64
2023/04/14 03:09:20;;;;;;;3.80;3.80;;;;;;;;;;4249338;28;20058;-64
2023/04/14 03:11:41;;;;;;;4.55;4.35;;;;;;;;;;4248021;28;20119;-64
2023/04/14 03:14:02;;;;;;;4.05;3.85;;;;;;;;;;4250094;28;20111;-64
2023/04/14 03:16:23;;;;;;;4.22;4.22;;;;;;;;;;4247519;28;20078;-64
2023/04/14 03:18:44;;;;;;;3.38;3.38;;;;;;;;;;4251075;28;20239;-64
2023/04/14 03:21:05;;;;;;;3.35;3.35;;;;;;;;;;4246267;28;20047;-64
2023/04/14 03:23:27;;;;;;;4.45;4.45;;;;;;;;;;4243130;28;20038;-64
2023/04/14 03:25:47;;;;;;;3.90;3.72;;;;;;;;;;4249214;28;20241;-64
2023/04/14 03:28:11;;;;;;;3.53;3.53;;;;;;;;;;4252423;28;20038;-64
2023/04/14 03:30:33;;;;;;;3.78;3.28;;;;;;;;;;4248397;28;20057;-64
2023/04/14 03:32:54;;;;;;;4.55;4.55;;;;;;;;;;4246436;28;20045;-64
2023/04/14 03:35:15;;;;;;;4.13;4.13;;;;;;;;;;4246901;28;20073;-64
2023/04/14 03:37:37;;;;;;;4.68;4.57;;;;;;;;;;4249742;28;20064;-64
2023/04/14 03:40:00;;;;;;;4.72;4.65;;;;;;;;;;4244831;28;20042;-64
2023/04/14 03:42:20;;;;;;;4.65;4.57;;;;;;;;;;4247904;28;20103;-64
2023/04/14 03:44:45;;;;;;;3.70;3.70;;;;;;;;;;4245641;28;20310;-64
2023/04/14 03:47:07;;;;;;;3.97;3.88;;;;;;;;;;4249350;27;20242;-64
2023/04/14 03:49:28;;;;;;;3.92;3.80;;;;;;;;;;4246006;28;20046;-64
2023/04/14 03:51:51;;;;;;;3.30;3.30;;;;;;;;;;4247374;28;20043;-64
2023/04/14 03:54:14;;;;;;;4.30;4.10;;;;;;;;;;4244495;28;20045;-64
2023/04/14 03:56:40;;;;;;;3.88;3.88;;;;;;;;;;4248018;28;20111;-64
2023/04/14 03:59:00;;;;;;;4.00;4.00;;;;;;;;;;4244195;28;20434;-64
2023/04/14 04:01:24;;;;;;;4.10;4.10;;;;;;;;;;4247874;28;20078;-64
2023/04/14 04:03:45;;;;;;;3.80;3.70;;;;;;;;;;4245510;28;20108;-64
2023/04/14 04:06:06;;;;;;;3.38;3.22;;;;;;;;;;4248124;28;20105;-64
2023/04/14 04:08:27;;;;;;;3.45;3.40;;;;;;;;;;4240291;28;20054;-64
2023/04/14 04:10:48;;;;;;;3.60;3.60;;;;;;;;;;4244111;28;20042;-64
2023/04/14 04:13:15;;;;;;;4.03;3.88;;;;;;;;;;4242369;28;20487;-64
2023/04/14 04:15:36;;;;;;;4.07;4.03;;;;;;;;;;4247077;28;20072;-64
2023/04/14 04:18:00;;;;;;;5.00;4.90;;;;;;;;;;4241926;28;20050;-64
2023/04/14 04:20:21;;;;;;;3.78;3.78;;;;;;;;;;4249002;28;20054;-64
2023/04/14 04:22:43;;;;;;;3.03;3.03;;;;;;;;;;4246869;28;20051;-64
2023/04/14 04:25:04;;;;;;;2.55;2.55;;;;;;;;;;4247202;28;20126;-64
2023/04/14 04:27:25;;;;;;;3.63;3.63;;;;;;;;;;4241059;28;20050;-64
2023/04/14 04:29:48;;;;;;;3.88;3.88;;;;;;;;;;4246614;28;20049;-64
2023/04/14 04:32:09;;;;;;;4.90;4.80;;;;;;;;;;4249540;28;20046;-64
2023/04/14 04:34:31;;;;;;;3.55;3.45;;;;;;;;;;4246964;28;20053;-64
2023/04/14 04:36:51;;;;;;;3.10;2.97;;;;;;;;;;4250368;27;20046;-64
2023/04/14 04:39:12;;;;;;;3.90;3.80;;;;;;;;;;4245978;28;20047;-64
2023/04/14 04:41:32;;;;;;;4.45;4.35;;;;;;;;;;4252136;28;20252;-64
2023/04/14 04:43:52;;;;;;;4.32;4.32;;;;;;;;;;4247864;28;20092;-64
2023/04/14 04:46:29;;;;;;;4.35;4.35;;;;;;;;;;4244814;28;20046;-64
2023/04/14 04:48:52;;;;;;;4.43;4.43;;;;;;;;;;4245052;28;20368;-64
2023/04/14 04:51:12;;;;;;;4.03;3.90;;;;;;;;;;4252379;28;20046;-64
2023/04/14 04:53:32;;;;;;;4.57;4.55;;;;;;;;;;4249565;28;20046;-64
2023/04/14 04:55:52;;;;;;;4.47;4.28;;;;;;;;;;4247866;28;20046;-64
2023/04/14 04:58:12;;;;;;;5.47;5.38;;;;;;;;;;4244566;28;20043;-64
2023/04/14 05:00:33;;;;;;;3.58;3.47;;;;;;;;;;4241661;28;20050;-64
2023/04/14 05:02:53;;;;;;;4.00;3.90;;;;;;;;;;4244753;28;20046;-64
2023/04/14 05:05:14;;;;;;;4.60;4.60;;;;;;;;;;4248612;28;20039;-64
2023/04/14 05:07:34;;;;;;;4.47;4.47;;;;;;;;;;4244373;28;20055;-64
2023/04/14 05:09:54;;;;;;;4.43;4.32;;;;;;;;;;4243403;28;20140;-64
2023/04/14 05:12:14;;;;;;;4.60;4.15;;;;;;;;;;4247213;28;20046;-64
2023/04/14 05:14:35;;;;;;;4.90;4.90;;;;;;;;;;4248133;28;20392;-64
2023/04/14 05:16:55;;;;;;;3.92;3.72;;;;;;;;;;4244685;28;20107;-64
2023/04/14 05:19:16;;;;;;;3.67;3.67;;;;;;;;;;4242515;28;20115;-61
2023/04/14 05:21:36;;;;;;;4.45;4.35;;;;;;;;;;4246028;28;20046;-61
2023/04/14 05:23:56;;;;;;;4.70;4.70;;;;;;;;;;4244141;28;20046;-61
2023/04/14 05:26:16;;;;;;;4.10;4.10;;;;;;;;;;4244436;28;20281;-61
2023/04/14 05:28:40;;;;;;;3.53;3.40;;;;;;;;;;4251915;28;20398;-61
2023/04/14 05:31:00;;;;;;;5.55;5.55;;;;;;;;;;4243405;28;20140;-61
2023/04/14 05:33:21;;;;;;;5.20;5.00;;;;;;;;;;4245553;28;20395;-61
2023/04/14 05:35:43;;;;;;;4.68;4.57;;;;;;;;;;4245039;28;20062;-62
2023/04/14 05:38:03;;;;;;;4.23;4.13;;;;;;;;;;4240508;28;20065;-61
2023/04/14 05:40:23;;;;;;;4.78;4.78;;;;;;;;;;4231478;28;20062;-62
2023/04/14 05:42:44;;;;;;;4.38;4.38;;;;;;;;;;4230597;28;20042;-62
2023/04/14 05:45:04;;;;;;;5.13;5.05;;;;;;;;;;4246353;28;20070;-62
2023/04/14 05:47:24;;;;;;;5.55;5.35;;;;;;;;;;4248208;28;20398;-61
2023/04/14 05:49:45;;;;;;;4.88;4.78;;;;;;;;;;4241088;28;20100;-61
2023/04/14 05:52:05;;;;;;;4.95;4.85;;;;;;;;;;4249490;28;20054;-62
2023/04/14 05:54:25;;;;;;;4.82;4.75;;;;;;;;;;4234995;28;20055;-62
2023/04/14 05:56:45;;;;;;;5.20;5.13;;;;;;;;;;4244187;28;20069;-62
2023/04/14 05:59:05;;;;;;;5.15;5.00;;;;;;;;;;4249987;28;20049;-62
2023/04/14 06:01:26;;;;;;;4.32;4.32;;;;;;;;;;4245402;28;20273;-62
2023/04/14 06:03:46;;;;;;;4.78;4.68;;;;;;;;;;4243906;28;20469;-62
2023/04/14 06:06:07;;;;;;;4.60;4.55;;;;;;;;;;4242064;28;20046;-62
2023/04/14 06:08:29;;;;;;;3.97;3.88;;;;;;;;;;4242711;28;20046;-62
2023/04/14 06:10:49;;;;;;;4.43;4.32;;;;;;;;;;4243510;28;20080;-62
2023/04/14 06:13:10;;;;;;;4.93;4.63;;;;;;;;;;4246494;27;20054;-62
2023/04/14 06:15:30;;;;;;;4.90;4.90;;;;;;;;;;4243857;28;20137;-62
2023/04/14 06:17:50;;;;;;;3.83;3.80;;;;;;;;;;4248514;28;20043;-62
2023/04/14 06:20:11;;;;;;;4.90;4.80;;;;;;;;;;4243158;28;20050;-62
2023/04/14 06:22:31;;;;;;;4.65;4.65;;;;;;;;;;4242746;28;20055;-62
2023/04/14 06:24:51;;;;;;;4.70;4.60;;;;;;;;;;4242573;28;20055;-62
2023/04/14 06:27:11;;;;;;;5.22;5.13;;;;;;;;;;4248632;28;20050;-62
2023/04/14 06:29:32;;;;;;;3.92;3.88;;;;;;;;;;4242940;28;20043;-62
2023/04/14 06:31:53;;;;;;;4.55;4.45;;;;;;;;;;4248658;28;20309;-62
2023/04/14 06:34:13;;;;;;;5.13;5.03;;;;;;;;;;4252162;28;20072;-62
2023/04/14 06:36:34;;;;;;;7.22;6.85;;;;;;;;;;4255148;27;20050;-62
2023/04/14 06:38:54;;;;;;;7.35;7.15;;;;;;;;;;4251674;28;20039;-62
2023/04/14 06:41:15;;;;;;;4.50;4.32;;;;;;;;;;4245834;28;20082;-62
2023/04/14 06:43:35;;;;;;;4.25;4.05;;;;;;;;;;4251089;28;20074;-62
2023/04/14 06:45:55;;;;;;;4.60;4.55;;;;;;;;;;4247683;28;20046;-62
2023/04/14 06:48:15;;;;;;;4.60;4.50;;;;;;;;;;4244991;28;20054;-62
2023/04/14 06:50:36;;;;;;;4.57;4.47;;;;;;;;;;4248042;28;20054;-62
2023/04/14 06:52:56;;;;;;;4.30;4.20;;;;;;;;;;4249949;28;20092;-62
2023/04/14 06:55:16;;;;;;;4.55;3.97;;;;;;;;;;4247823;28;20117;-62
2023/04/14 06:57:36;;;;;;;4.00;3.90;;;;;;;;;;4245292;28;20042;-62
2023/04/14 06:59:56;;;;;;;4.10;3.97;;;;;;;;;;4247920;28;20077;-62
2023/04/14 07:02:17;;;;;;;3.10;3.10;;;;;;;;;;4248241;28;20081;-62
2023/04/14 07:04:37;;;;;;;3.15;3.15;;;;;;;;;;4245060;28;20374;-62
2023/04/14 07:07:00;;;;;;;3.40;3.40;;;;;;;;;;4251514;28;20085;-61
2023/04/14 07:09:22;;;;;;;2.53;2.53;;;;;;;;;;4230934;28;20175;-62
2023/04/14 07:11:44;;;;;;;2.60;2.60;;;;;;;;;;4248229;28;20082;-62
2023/04/14 07:14:05;;;;;;;2.65;2.65;;;;;;;;;;4246537;28;20050;-62
2023/04/14 07:16:25;;;;;;;3.75;3.67;;;;;;;;;;4251377;28;20100;-62
2023/04/14 07:18:45;;;;;;;3.65;3.47;;;;;;;;;;4245550;28;20042;-62
2023/04/14 07:21:05;;;;;;;3.80;3.70;;;;;;;;;;4250087;28;20610;-62
2023/04/14 07:23:26;;;;;;;2.30;2.30;;;;;;;;;;4244724;28;20272;-62
2023/04/14 07:25:56;;;;;;;4.05;3.03;;;;;;;;;;4245274;28;20042;-61
2023/04/14 07:28:17;;;;;;;3.35;3.35;;;;;;;;;;4243336;28;20373;-61
2023/04/14 07:30:37;;;;;;;2.83;2.83;;;;;;;;;;4245079;28;20042;-62
2023/04/14 07:32:57;;;;;;;3.50;3.50;;;;;;;;;;4248760;28;20080;-61
2023/04/14 07:35:18;;;;;;;3.72;2.85;;;;;;;;;;4246216;28;20377;-61
2023/04/14 07:37:38;;;;;;;3.72;3.67;;;;;;;;;;4243785;28;20369;-61
2023/04/14 07:39:59;;;;;;;3.13;3.08;;;;;;;;;;4243080;28;20072;-62
2023/04/14 07:42:19;;;;;;;2.50;2.38;;;;;;;;;;4248079;28;20085;-62
2023/04/14 07:44:40;;;;;;;3.38;3.38;;;;;;;;;;4247426;28;20042;-62
2023/04/14 07:47:00;;;;;;;3.63;3.40;;;;;;;;;;4248362;28;20046;-62
2023/04/14 07:49:20;;;;;;;3.92;3.92;;;;;;;;;;4247488;28;20078;-62
2023/04/14 07:51:40;;;;;;;4.20;4.18;;;;;;;;;;4246740;28;20047;-62
2023/04/14 07:54:01;;;;;;;4.45;4.35;;;;;;;;;;4248635;28;20038;-62
2023/04/14 07:56:22;;;;;;;3.67;3.58;;;;;;;;;;4247304;28;20111;-62
2023/04/14 07:58:42;;;;;;;3.45;3.35;;;;;;;;;;4247145;28;20084;-62
2023/04/14 08:01:02;;;;;;;3.42;3.33;;;;;;;;;;4248282;28;20049;-62
2023/04/14 08:03:22;;;;;;;3.30;3.30;;;;;;;;;;4250709;28;20046;-61
2023/04/14 08:05:43;;;;;;;3.83;3.83;;;;;;;;;;4244477;28;20111;-61
2023/04/14 08:08:03;;;;;;;2.95;2.85;;;;;;;;;;4245599;28;20144;-61
2023/04/14 08:10:24;;;;;;;3.03;2.92;;;;;;;;;;4248645;28;20075;-61
2023/04/14 08:12:44;;;;;;;2.53;2.53;;;;;;;;;;4246614;28;20067;-61
2023/04/14 08:15:04;;;;;;;3.58;3.58;;;;;;;;;;4252851;28;20034;-61
2023/04/14 08:17:25;;;;;;;2.92;2.92;;;;;;;;;;4248460;28;20076;-61
2023/04/14 08:19:46;;;;;;;4.00;3.90;;;;;;;;;;4239725;28;20050;-61
2023/04/14 08:22:06;;;;;;;4.32;4.05;;;;;;;;;;4239413;28;20050;-61
2023/04/14 08:24:26;;;;;;;4.88;4.78;;;;;;;;;;4242846;28;20130;-61
2023/04/14 08:26:47;;;;;;;3.17;3.17;;;;;;;;;;4248633;28;20046;-61
2023/04/14 08:29:07;;;;;;;3.13;3.13;;;;;;;;;;4242208;28;20043;-61
2023/04/14 08:31:27;;;;;;;5.68;5.43;;;;;;;;;;4250703;28;20042;-61
2023/04/14 08:33:47;;;;;;;3.83;3.72;;;;;;;;;;4247572;27;20046;-61
2023/04/14 08:36:08;;;;;;;3.15;3.15;;;;;;;;;;4248915;28;20046;-61
2023/04/14 08:38:28;;;;;;;3.53;3.53;;;;;;;;;;4242744;28;20047;-62
2023/04/14 08:40:51;;;;;;;2.53;2.53;;;;;;;;;;4245631;28;20288;-61
2023/04/14 08:43:12;;;;;;;3.72;3.72;;;;;;;;;;4243922;28;20103;-61
2023/04/14 08:45:35;;;;;;;3.67;3.67;;;;;;;;;;4245971;28;20051;-61
2023/04/14 08:47:56;;;;;;;2.72;2.65;;;;;;;;;;4247316;28;20389;-60
2023/04/14 08:50:18;;;;;;;2.67;2.67;;;;;;;;;;4246178;28;20080;-61
2023/04/14 08:52:39;;;;;;;2.90;2.90;;;;;;;;;;4243613;28;20076;-61
2023/04/14 08:54:59;;;;;;;2.80;2.70;;;;;;;;;;4249552;28;20391;-61
2023/04/14 08:57:22;;;;;;;2.83;2.83;;;;;;;;;;4247750;28;20050;-61
2023/04/14 08:59:43;;;;;;;2.80;2.72;;;;;;;;;;4246555;28;20080;-60
2023/04/14 09:02:06;;;;;;;10.90;10.10;;;;;;;;;;4242360;28;20047;-60
2023/04/14 09:04:28;;;;;;;4.20;4.20;;;;;;;;;;4244030;28;20042;-60
2023/04/14 09:06:48;;;;;;;3.10;3.10;;;;;;;;;;4246654;28;20046;-60
2023/04/14 09:09:09;;;;;;;3.70;3.70;;;;;;;;;;4246005;28;20080;-61
2023/04/14 09:11:30;;;;;;;3.42;3.42;;;;;;;;;;4247290;28;20078;-60
2023/04/14 09:13:50;;;;;;;4.18;4.18;;;;;;;;;;4246024;28;20046;-60
2023/04/14 09:16:12;;;;;;;3.63;3.58;;;;;;;;;;4244612;28;20046;-60
2023/04/14 09:18:32;;;;;;;3.13;3.08;;;;;;;;;;4247498;28;20043;-60
2023/04/14 09:20:54;;;;;;;3.53;3.53;;;;;;;;;;4243432;28;20047;-60
2023/04/14 09:23:35;;;;;;;3.13;3.13;;;;;;;;;;4244811;28;20159;-60
2023/04/14 09:25:55;;;;;;;2.88;2.85;;;;;;;;;;4245220;28;20050;-60
2023/04/14 09:28:16;;;;;;;5.22;5.13;;;;;;;;;;4249150;28;20083;-60
2023/04/14 09:30:36;;;;;;;3.20;3.20;;;;;;;;;;4240976;28;20068;-60
2023/04/14 09:32:56;;;;;;;5.47;5.15;;;;;;;;;;4247674;28;20080;-60
2023/04/14 09:35:17;;;;;;;2.53;2.53;;;;;;;;;;4247450;28;20083;-61
2023/04/14 09:37:45;;;;;;;2.72;2.72;;;;;;;;;;4247996;28;20107;-60
2023/04/14 09:40:07;;;;;;;4.75;4.55;;;;;;;;;;4240706;28;20270;-60
2023/04/14 09:42:41;;;;;;;3.88;3.78;;;;;;;;;;4246627;28;20050;-60
2023/04/14 09:45:03;;;;;;;2.60;2.60;;;;;;;;;;4247279;27;20050;-60
2023/04/14 09:47:24;;;;;;;3.15;3.08;;;;;;;;;;4251753;28;20050;-60
2023/04/14 09:49:56;;;;;;;3.22;3.22;;;;;;;;;;4251916;28;20050;-60
2023/04/14 09:52:16;;;;;;;3.33;3.10;;;;;;;;;;4243998;28;20265;-60
2023/04/14 09:54:39;;;;;;;3.20;3.20;;;;;;;;;;4248035;28;20041;-60
2023/04/14 09:57:00;;;;;;;3.45;3.25;;;;;;;;;;4252784;28;20054;-60
2023/04/14 09:59:33;;;;;;;2.50;2.50;;;;;;;;;;4248283;28;20126;-60
2023/04/14 10:01:57;;;;;;;;;;;;;;;;;;4247836;28;20084;-60
2023/04/14 10:04:17;;;;;;;;;;;;;;;;;;4248635;28;19936;-61
2023/04/14 10:06:40;;;;;;;2.67;2.67;;;;;;;;;;4248433;28;19931;-61
2023/04/14 10:09:00;;;;;;;3.42;3.10;;;;;;;;;;4249944;28;20070;-60
2023/04/14 10:11:28;;;;;;;3.83;3.83;;;;;;;;;;4246947;28;20054;-60
2023/04/14 10:13:53;;;;;;;4.35;4.15;;;;;;;;;;4248408;28;20334;-60
2023/04/14 10:16:13;;;;;;;3.97;3.92;;;;;;;;;;4230816;28;20065;-60
2023/04/14 10:18:34;;;;;;;4.53;4.20;;;;;;;;;;4247135;28;20088;-60
2023/04/14 10:20:54;;;;;;;3.58;3.58;;;;;;;;;;4246721;28;20144;-60
2023/04/14 10:23:14;;;;;;;5.97;5.78;;;;;;;;;;4249809;28;20054;-60
2023/04/14 10:25:34;;;;;;;4.18;4.05;;;;;;;;;;4245150;28;20042;-60
2023/04/14 10:27:55;;;;;;;3.47;3.47;;;;;;;;;;4248836;28;20373;-60
2023/04/14 10:30:15;;;;;;;2.90;2.83;;;;;;;;;;4239588;28;20390;-60
2023/04/14 10:32:37;;;;;;;4.35;4.25;;;;;;;;;;4243073;28;20065;-61
2023/04/14 10:35:00;;;;;;;3.00;3.00;;;;;;;;;;4251490;28;20350;-60
2023/04/14 10:37:21;;;;;;;3.42;3.42;;;;;;;;;;4246461;27;20107;-60
2023/04/14 10:39:41;;;;;;;3.30;3.08;;;;;;;;;;4242647;28;20074;-60
2023/04/14 10:42:01;;;;;;;2.63;2.63;;;;;;;;;;4242440;28;20085;-60
2023/04/14 10:44:22;;;;;;;2.50;2.50;;;;;;;;;;4242244;28;20058;-60
2023/04/14 10:46:42;;;;;;;3.88;3.88;;;;;;;;;;4242771;28;20245;-60
2023/04/14 10:49:02;;;;;;;2.45;2.45;;;;;;;;;;4242762;28;20066;-60
2023/04/14 10:51:34;;;;;;;3.40;3.30;;;;;;;;;;4248087;28;20047;-60
2023/04/14 10:53:56;;;;;;;2.10;2.10;;;;;;;;;;4251605;28;20081;-60
2023/04/14 10:56:20;;;;;;;2.10;2.10;;;;;;;;;;4251590;28;20137;-60
2023/04/14 10:58:40;;;;;;;1.90;1.90;;;;;;;;;;4241085;28;20235;-60
2023/04/14 11:01:00;;;;;;;2.20;2.20;;;;;;;;;;4245629;28;20049;-60
2023/04/14 11:03:20;;;;;;;3.55;3.35;;;;;;;;;;4251036;28;20102;-60
2023/04/14 11:05:44;;;;;;;2.40;2.30;;;;;;;;;;4246931;28;20395;-60
2023/04/14 11:08:12;;;;;;;1.60;1.60;;;;;;;;;;4229235;28;20050;-60
2023/04/14 11:10:33;;;;;;;1.50;1.50;;;;;;;;;;4247233;28;20050;-60
2023/04/14 11:12:57;;;;;;;1.55;1.55;;;;;;;;;;4249334;28;20160;-60
2023/04/14 11:15:18;;;;;;;1.80;1.80;;;;;;;;;;4248201;28;20054;-60
2023/04/14 11:17:38;;;;;;;1.55;1.55;;;;;;;;;;4244864;28;20055;-60
2023/04/14 11:19:59;;;;;;;2.00;2.00;;;;;;;;;;4250633;28;20046;-60
2023/04/14 11:22:39;;;;;;;1.60;1.60;;;;;;;;;;4245281;28;20049;-60
2023/04/14 11:24:59;;;;;;;1.70;1.60;;;;;;;;;;4248194;28;20050;-60
2023/04/14 11:27:19;;;;;;;2.10;2.10;;;;;;;;;;4243382;28;20309;-60
2023/04/14 11:29:40;;;;;;;2.10;2.10;;;;;;;;;;4247105;28;20426;-60
2023/04/14 11:32:04;;;;;;;2.28;2.28;;;;;;;;;;4244550;28;20046;-60
2023/04/14 11:34:27;;;;;;;3.75;3.65;;;;;;;;;;4249009;28;20076;-60
2023/04/14 11:36:48;;;;;;;2.08;1.98;;;;;;;;;;4247237;27;20135;-60
2023/04/14 11:39:08;;;;;;;1.88;1.88;;;;;;;;;;4245720;28;20263;-60
2023/04/14 11:41:29;;;;;;;4.13;4.03;;;;;;;;;;4252428;28;20051;-60
2023/04/14 11:43:50;;;;;;;2.33;2.33;;;;;;;;;;4247417;28;20138;-59
2023/04/14 11:46:11;;;;;;;1.85;1.75;;;;;;;;;;4248477;28;20050;-59
2023/04/14 11:48:31;;;;;;;9.00;8.23;;;;;;;;;;4249714;28;20054;-59
2023/04/14 11:50:52;;;;;;;3.40;3.30;;;;;;;;;;4246348;28;20113;-59
2023/04/14 11:53:13;;;;;;;4.20;4.10;;;;;;;;;;4249172;28;20046;-59
2023/04/14 11:55:33;;;;;;;4.00;3.90;;;;;;;;;;4248073;28;20043;-59
2023/04/14 11:57:54;;;;;;;3.42;3.33;;;;;;;;;;4247175;28;20042;-59
2023/04/14 12:00:16;;;;;;;3.72;3.63;;;;;;;;;;4247402;28;20045;-59
2023/04/14 12:02:36;;;;;;;3.40;3.30;;;;;;;;;;4248299;28;20074;-59
2023/04/14 12:04:57;;;;;;;3.42;3.42;;;;;;;;;;4247703;28;20069;-59
2023/04/14 12:07:18;;;;;;;3.08;2.97;;;;;;;;;;4248374;28;20093;-60
2023/04/14 12:09:49;;;;;;;2.00;2.00;;;;;;;;;;4249256;28;20038;-59
2023/04/14 12:12:10;;;;;;;3.22;3.22;;;;;;;;;;4250432;28;20076;-59
2023/04/14 12:14:31;;;;;;;2.20;2.20;;;;;;;;;;4250626;28;20114;-59
2023/04/14 12:16:51;;;;;;;8.63;8.00;;;;;;;;;;4249783;28;20050;-59
2023/04/14 12:19:11;;;;;;;2.28;2.28;;;;;;;;;;4244672;28;20073;-59
2023/04/14 12:21:31;;;;;;;1.75;1.75;;;;;;;;;;4246046;28;20083;-59
2023/04/14 12:23:51;;;;;;;3.58;3.38;;;;;;;;;;4246743;28;20050;-60
2023/04/14 12:26:11;;;;;;;3.40;3.30;;;;;;;;;;4245020;28;20050;-59
2023/04/14 12:28:33;;;;;;;2.40;2.30;;;;;;;;;;4250362;28;20243;-59
2023/04/14 12:30:55;;;;;;;3.00;3.00;;;;;;;;;;4245221;28;20072;-59
2023/04/14 12:33:16;;;;;;;2.30;2.30;;;;;;;;;;4244155;28;20042;-59
2023/04/14 12:35:36;;;;;;;1.83;1.83;;;;;;;;;;4244687;28;20082;-59
2023/04/14 12:37:56;;;;;;;1.60;1.60;;;;;;;;;;4249449;28;20084;-60
2023/04/14 12:40:17;;;;;;;1.63;1.52;;;;;;;;;;4242064;28;20088;-60
2023/04/14 12:42:45;;;;;;;1.50;1.40;;;;;;;;;;4242715;28;20107;-60
2023/04/14 12:45:06;;;;;;;1.40;1.40;;;;;;;;;;4245681;28;20393;-61
2023/04/14 12:47:30;;;;;;;1.10;1.10;;;;;;;;;;4242638;28;20227;-61
2023/04/14 12:49:52;;;;;;;1.20;1.20;;;;;;;;;;4245066;28;20084;-61
2023/04/14 12:52:32;;;;;;;1.10;1.10;;;;;;;;;;4246642;28;20046;-60
2023/04/14 12:54:52;;;;;;;1.30;1.30;;;;;;;;;;4243847;28;20357;-61
2023/04/14 12:57:12;;;;;;;1.10;1.10;;;;;;;;;;4243123;28;20070;-61
2023/04/14 12:59:32;;;;;;;1.10;1.10;;;;;;;;;;4246995;28;20070;-61
2023/04/14 13:01:53;;;;;;;1.60;1.00;;;;;;;;;;4248494;28;20376;-61
2023/04/14 13:04:13;;;;;;;1.10;1.10;;;;;;;;;;4251579;28;20249;-61
2023/04/14 13:06:34;;;;;;;1.30;1.30;;;;;;;;;;4242411;28;20054;-60
2023/04/14 13:08:58;;;;;;;2.42;2.30;;;;;;;;;;4249752;28;20074;-61
2023/04/14 13:11:20;;;;;;;1.17;1.17;;;;;;;;;;4245681;28;20042;-61
2023/04/14 13:13:41;;;;;;;2.05;1.95;;;;;;;;;;4248722;28;20373;-60
2023/04/14 13:16:02;;;;;;;1.20;1.20;;;;;;;;;;4244987;28;20038;-61
2023/04/14 13:18:35;;;;;;;1.67;1.67;;;;;;;;;;4247316;28;20059;-60
2023/04/14 13:20:56;;;;;;;1.30;1.30;;;;;;;;;;4249690;28;20288;-61
2023/04/14 13:23:16;;;;;;;1.10;1.10;;;;;;;;;;4249059;28;20093;-61
2023/04/14 13:25:37;;;;;;;1.00;1.00;;;;;;;;;;4252127;28;20078;-61
2023/04/14 13:27:57;;;;;;;1.20;1.20;;;;;;;;;;4248577;28;20054;-61
2023/04/14 13:30:17;;;;;;;1.10;1.10;;;;;;;;;;4249060;28;20039;-61
2023/04/14 13:32:38;;;;;;;1.10;1.10;;;;;;;;;;4251219;28;20084;-61
2023/04/14 13:34:58;;;;;;;1.10;1.10;;;;;;;;;;4250999;28;20093;-61
2023/04/14 13:37:20;;;;;;;1.10;1.10;;;;;;;;;;4251402;28;20087;-61
2023/04/14 13:39:40;;;;;;;1.10;1.10;;;;;;;;;;4251938;28;20045;-61
2023/04/14 13:42:00;;;;;;;1.10;1.10;;;;;;;;;;4255334;28;20235;-61
2023/04/14 13:44:21;;;;;;;1.08;1.08;;;;;;;;;;4253671;28;20068;-61
2023/04/14 13:46:44;;;;;;;1.42;1.33;;;;;;;;;;4252458;28;20051;-60
2023/04/14 13:49:04;;;;;;;1.10;1.10;;;;;;;;;;4251592;28;20095;-61
2023/04/14 13:51:27;;;;;;;1.10;1.10;;;;;;;;;;4248538;28;20069;-61
2023/04/14 13:53:47;;;;;;;1.10;1.10;;;;;;;;;;4243889;28;20081;-61
2023/04/14 13:56:07;;;;;;;1.10;1.10;;;;;;;;;;4246762;28;20062;-61
2023/04/14 13:58:27;;;;;;;1.30;1.30;;;;;;;;;;4250926;28;20075;-61
2023/04/14 14:00:48;;;;;;;1.10;1.10;;;;;;;;;;4244737;28;20361;-61
2023/04/14 14:03:08;;;;;;;2.13;2.13;;;;;;;;;;4241837;28;20069;-61
2023/04/14 14:05:29;;;;;;;3.03;1.30;;;;;;;;;;4248849;28;20380;-61
2023/04/14 14:07:49;;;;;;;1.50;1.23;;;;;;;;;;4250512;28;20088;-61
2023/04/14 14:10:09;;;;;;;1.00;1.00;;;;;;;;;;4246907;28;20077;-61